DEKT2: Red River, Dekalb, TX

Data processed at Thu Oct 17 2019 23:35


All information presented herein is the property of the government of the United States of America and may be revised or deleted at any time without prior notice.
Dissemination of this information without the expressed written consent of the Public Affairs Office, Tulsa District U.S. Army Corps of Engineers is strictly prohibited.
These data are gathered electronically and, as presented, have not undergone any form of quality control. These data are not guaranteed to be valid or correct.
Go to home page.
Go to station list.
Go to home page.

Upstream stations:

Downstream station:
Previous Day
Next Day
Current Day
    
SHEF ID:       DEKT2     Red River near De Kalb, TX
STATION TYPE:  
Regulating: Stage =    23.70, Flow =    65615

               PRECIP     STAGE  STAGE(2)  RIV-FLOW  BAT-LOAD
                   in        ft        ft       cfs      volt
              Ccp-Rev   Ccp-Rev   Ccp-Rev   Ccp-Rev   Ccp-Rev
(US/Central)
10/17 00:00      0.00     10.61      ----      4352     13.05
10/17 01:00      0.00     10.66      ----      4435     13.05
10/17 02:00      0.00     10.70      ----      4503     13.05
10/17 03:00      0.00     10.74      ----      4571     12.97
10/17 04:00      0.00     10.77      ----      4622     12.97
10/17 05:00      0.00     10.80      ----      4674     12.97
10/17 06:00      0.00     10.83      ----      4727     12.97
10/17 07:00      0.00     10.86      ----      4779     12.89
10/17 08:00      0.00     10.89      ----      4832     12.89
10/17 09:00      0.00     10.91      ----      4868     13.13
10/17 10:00      0.00     10.94      ----      4921     13.53
10/17 11:00      0.00     10.96      ----      4957     13.37
10/17 12:00      0.00     10.99      ----      5011     13.44
10/17 13:00      0.00     11.00      ----      5029     13.44
10/17 14:00      0.00     11.01      ----      5048     13.44
10/17 15:00      0.00     11.03      ----      5084     13.53
10/17 16:00      0.00     11.05      ----      5121     13.60
10/17 17:00      0.00     11.05      ----      5121     13.44
10/17 18:00      0.00     11.05      ----      5121     13.29
10/17 19:00      0.00     11.06      ----      5139     13.21
10/17 20:00      0.00     11.06      ----      5139     13.13
10/17 21:00      0.00     11.08      ----      5176     13.05
10/17 22:00      0.00     11.09      ----      5194     13.05
10/17 23:00      0.00     11.09      ----      5194     13.05